James Cook — MLRM6 — position and weather

sailwx.info

Track history (hours):
 
Tides and Currents Weather Stations Pressure Air Temp Water Temp Dewpoint Dewpoint Depression Visibility Wind Speed Wind Dir Waves Ship Positions

Oceanographic research ship James Cook (UK)

Last reported at 2017-Dec-11 07:30 UTC. Time now 2017-Dec-11 07:42 UTC.
Position N 50°38' W 000°59'.

Length 89.2 m; beam 18.6 m; draft 5.7 m.

Type: Other ship. MMSI: 235010700.

Date/timePositionNaut miles runAvg speedWind from/ knotsBaromVisibWave heightAir tempDewpointWater temp
2017-Dec-11 07:30N 50°38' W 000°59'3 6.7
2017-Dec-11 07:00N 50°34' W 000°59'2 4.9
2017-Dec-11 06:30N 50°34' W 001°03'3 6.6
2017-Dec-11 06:00N 50°33' W 001°08'3 6.9
2017-Dec-11 05:29N 50°32' W 001°13'5 7.5
2017-Dec-11 04:48N 50°30' W 001°21'2 7.2
2017-Dec-11 04:30N 50°30' W 001°24'4 7.5
2017-Dec-11 04:00N 50°30' W 001°30'4 7.9
2017-Dec-11 03:30N 50°30' W 001°36'4 8.3
2017-Dec-11 03:00N 50°29' W 001°43'4 8.7
2017-Dec-11 02:30N 50°29' W 001°50'4 8.6
2017-Dec-11 02:00N 50°28' W 001°56'4 8.4
2017-Dec-11 01:30N 50°28' W 002°03'12 8.3
2017-Dec-11 00:05N 50°27' W 002°22'1 8.7
2017-Dec-11 00:00N 50°27' W 002°23'4 8.3
2017-Dec-10 23:30N 50°27' W 002°29'4 7.5
2017-Dec-10 23:00N 50°28' W 002°35'4 7.5
2017-Dec-10 22:31N 50°29' W 002°41'4 7.4
2017-Dec-10 22:00N 50°29' W 002°46'4 8.6
2017-Dec-10 21:30N 50°30' W 002°53'510.4
2017-Dec-10 21:00N 50°31' W 003°01'4 7.7
2017-Dec-10 20:30N 50°32' W 003°07'4 7.4
2017-Dec-10 20:01N 50°32' W 003°13'3 6.8
2017-Dec-10 19:30N 50°33' W 003°18'0 0.1
2017-Dec-10 19:00N 50°33' W 003°18'0 0.0
2017-Dec-10 18:30N 50°33' W 003°18'0 0.0
2017-Dec-10 18:00N 50°33' W 003°18'0 0.0
2017-Dec-10 17:31N 50°33' W 003°18'0 0.0
2017-Dec-10 17:00N 50°33' W 003°18'0 0.0
2017-Dec-10 16:30N 50°33' W 003°18'0 0.0
2017-Dec-10 16:00N 50°33' W 003°18'0 0.0
2017-Dec-10 15:30N 50°33' W 003°18'0 0.0
2017-Dec-10 15:00N 50°33' W 003°18'0 0.0
2017-Dec-10 14:30N 50°33' W 003°18'0 0.1
2017-Dec-10 14:00N 50°33' W 003°18'0 0.1
2017-Dec-10 13:30N 50°33' W 003°18'0 0.0
2017-Dec-10 13:00N 50°33' W 003°18'0 0.1
2017-Dec-10 12:30N 50°33' W 003°18'0 0.1
2017-Dec-10 12:00N 50°33' W 003°18'0 0.0
2017-Dec-10 11:30N 50°33' W 003°18'0 0.0
2017-Dec-10 11:00N 50°33' W 003°18'0 0.0
2017-Dec-10 10:30N 50°33' W 003°18'0 0.0
2017-Dec-10 10:00N 50°33' W 003°18'0 0.0
2017-Dec-10 09:30N 50°33' W 003°18'0 0.0
2017-Dec-10 09:00N 50°33' W 003°18'0 0.0
2017-Dec-10 08:30N 50°33' W 003°18'0 0.0
2017-Dec-10 08:00N 50°33' W 003°18'0 0.0
2017-Dec-10 07:30N 50°33' W 003°18'0 0.0
2017-Dec-10 07:00N 50°33' W 003°18'0 0.0
2017-Dec-10 06:30N 50°33' W 003°18'0 0.0
2017-Dec-10 06:00N 50°33' W 003°18'0 0.0
2017-Dec-10 05:30N 50°33' W 003°18'0 0.0
2017-Dec-10 05:01N 50°33' W 003°18'0 0.3
2017-Dec-10 04:31N 50°33' W 003°18'5 9.8
2017-Dec-10 04:00N 50°28' W 003°20'612.5
2017-Dec-10 03:30N 50°22' W 003°23'612.4
2017-Dec-10 03:00N 50°17' W 003°27'612.6
2017-Dec-10 02:30N 50°10' W 003°30'612.2
2017-Dec-10 02:01N 50°06' W 003°36'612.3
2017-Dec-10 01:30N 50°03' W 003°44'612.3
2017-Dec-10 01:00N 49°59' W 003°52'  
2017-Dec-02 00:00N 25°18' W 020°06'   050 / 71022.610.8 23.419.724.7
Track history (hours):
 
Tides and Currents Weather Stations Pressure Air Temp Water Temp Dewpoint Dewpoint Depression Visibility Wind Speed Wind Dir Waves Ship Positions

Oceanographic research ship James Cook (UK)

Last reported at 2017-Dec-11 07:30 UTC. Time now 2017-Dec-11 07:42 UTC.
Position N 50°38' W 000°59'.

Length 89.2 m; beam 18.6 m; draft 5.7 m.

Type: Other ship. MMSI: 235010700.

Date/timePositionNaut miles runAvg speedWind from/ knotsBaromVisibWave heightAir tempDewpointWater temp
2017-Dec-11 07:30N 50°38' W 000°59'3 6.7
2017-Dec-11 07:00N 50°34' W 000°59'2 4.9
2017-Dec-11 06:30N 50°34' W 001°03'3 6.6
2017-Dec-11 06:00N 50°33' W 001°08'3 6.9
2017-Dec-11 05:29N 50°32' W 001°13'5 7.5
2017-Dec-11 04:48N 50°30' W 001°21'2 7.2
2017-Dec-11 04:30N 50°30' W 001°24'4 7.5
2017-Dec-11 04:00N 50°30' W 001°30'4 7.9
2017-Dec-11 03:30N 50°30' W 001°36'4 8.3
2017-Dec-11 03:00N 50°29' W 001°43'4 8.7
2017-Dec-11 02:30N 50°29' W 001°50'4 8.6
2017-Dec-11 02:00N 50°28' W 001°56'4 8.4
2017-Dec-11 01:30N 50°28' W 002°03'12 8.3
2017-Dec-11 00:05N 50°27' W 002°22'1 8.7
2017-Dec-11 00:00N 50°27' W 002°23'4 8.3
2017-Dec-10 23:30N 50°27' W 002°29'4 7.5
2017-Dec-10 23:00N 50°28' W 002°35'4 7.5
2017-Dec-10 22:31N 50°29' W 002°41'4 7.4
2017-Dec-10 22:00N 50°29' W 002°46'4 8.6
2017-Dec-10 21:30N 50°30' W 002°53'510.4
2017-Dec-10 21:00N 50°31' W 003°01'4 7.7
2017-Dec-10 20:30N 50°32' W 003°07'4 7.4
2017-Dec-10 20:01N 50°32' W 003°13'3 6.8
2017-Dec-10 19:30N 50°33' W 003°18'0 0.1
2017-Dec-10 19:00N 50°33' W 003°18'0 0.0
2017-Dec-10 18:30N 50°33' W 003°18'0 0.0
2017-Dec-10 18:00N 50°33' W 003°18'0 0.0
2017-Dec-10 17:31N 50°33' W 003°18'0 0.0
2017-Dec-10 17:00N 50°33' W 003°18'0 0.0
2017-Dec-10 16:30N 50°33' W 003°18'0 0.0
2017-Dec-10 16:00N 50°33' W 003°18'0 0.0
2017-Dec-10 15:30N 50°33' W 003°18'0 0.0
2017-Dec-10 15:00N 50°33' W 003°18'0 0.0
2017-Dec-10 14:30N 50°33' W 003°18'0 0.1
2017-Dec-10 14:00N 50°33' W 003°18'0 0.1
2017-Dec-10 13:30N 50°33' W 003°18'0 0.0
2017-Dec-10 13:00N 50°33' W 003°18'0 0.1
2017-Dec-10 12:30N 50°33' W 003°18'0 0.1
2017-Dec-10 12:00N 50°33' W 003°18'0 0.0
2017-Dec-10 11:30N 50°33' W 003°18'0 0.0
2017-Dec-10 11:00N 50°33' W 003°18'0 0.0
2017-Dec-10 10:30N 50°33' W 003°18'0 0.0
2017-Dec-10 10:00N 50°33' W 003°18'0 0.0
2017-Dec-10 09:30N 50°33' W 003°18'0 0.0
2017-Dec-10 09:00N 50°33' W 003°18'0 0.0
2017-Dec-10 08:30N 50°33' W 003°18'0 0.0
2017-Dec-10 08:00N 50°33' W 003°18'0 0.0
2017-Dec-10 07:30N 50°33' W 003°18'0 0.0
2017-Dec-10 07:00N 50°33' W 003°18'0 0.0
2017-Dec-10 06:30N 50°33' W 003°18'0 0.0
2017-Dec-10 06:00N 50°33' W 003°18'0 0.0
2017-Dec-10 05:30N 50°33' W 003°18'0 0.0
2017-Dec-10 05:01N 50°33' W 003°18'0 0.3
2017-Dec-10 04:31N 50°33' W 003°18'5 9.8
2017-Dec-10 04:00N 50°28' W 003°20'612.5
2017-Dec-10 03:30N 50°22' W 003°23'612.4
2017-Dec-10 03:00N 50°17' W 003°27'612.6
2017-Dec-10 02:30N 50°10' W 003°30'612.2
2017-Dec-10 02:01N 50°06' W 003°36'612.3
2017-Dec-10 01:30N 50°03' W 003°44'612.3
2017-Dec-10 01:00N 49°59' W 003°52'  
2017-Dec-02 00:00N 25°18' W 020°06'   050 / 71022.610.8 23.419.724.7

Dump ship's entire track history